Terminal Aerodrome Forecast
Issued by NWS

Home | Current Version | Previous Version | Text Only | Print | Product List | Glossary Off
Versions: 1 2 3 4 5 6 7 8 9 10 11 12 13 14 15 16 17 18 19 20 21 22 23 24

000
FTUS43 KABR 051727
TAFPIR
TAF
KPIR 051727Z 0518/0618 31015KT P6SM SCT015 BKN040
     FM051900 31024G35KT 6SM -SN BLSN BKN015
     FM052300 31026G38KT P6SM BKN020
     FM060100 30025G35KT P6SM BKN040
     FM061100 29017G25KT P6SM SCT050=

USA.gov is the U.S. government's official web portal to all federal, state and local government web resources and services.